Terminal Aerodrome Forecast
Issued by NWS Sioux Falls, SD

Home | Current Version | Previous Version | Text Only | Print | Product List | Glossary On
Versions: 1 2 3 4 5 6 7 8 9 10 11 12 13 14 15 16 17 18 19 20
000
FTUS43 KFSD 211700
TAFSUX
TAF
KSUX 211724Z 2118/2218 35019G27KT P6SM SKC
     FM220000 34014KT P6SM SKC
     FM220200 35008KT P6SM SKC
     FM220700 01003KT P6SM SKC
     FM221600 13008KT P6SM SCT100=

USA.gov is the U.S. government's official web portal to all federal, state and local government web resources and services.